sensor_id;sensor_type;location;lat;lon;timestamp;P1;durP1;ratioP1;P2;durP2;ratioP2
39776;SDS011;25453;48.162;14.510;2023-09-08T00:00:07;5.63;;;3.33;;
39776;SDS011;25453;48.162;14.510;2023-09-08T00:02:35;5.15;;;3.05;;
39776;SDS011;25453;48.162;14.510;2023-09-08T00:05:03;6.25;;;3.10;;
39776;SDS011;25453;48.162;14.510;2023-09-08T00:07:30;6.28;;;3.28;;
39776;SDS011;25453;48.162;14.510;2023-09-08T00:09:57;5.93;;;3.30;;
39776;SDS011;25453;48.162;14.510;2023-09-08T00:12:24;7.18;;;3.60;;
39776;SDS011;25453;48.162;14.510;2023-09-08T00:14:51;6.22;;;3.25;;
39776;SDS011;25453;48.162;14.510;2023-09-08T00:17:18;6.28;;;2.85;;
39776;SDS011;25453;48.162;14.510;2023-09-08T00:19:46;5.05;;;3.00;;
39776;SDS011;25453;48.162;14.510;2023-09-08T00:22:13;7.88;;;4.30;;
39776;SDS011;25453;48.162;14.510;2023-09-08T00:24:40;6.90;;;3.50;;
39776;SDS011;25453;48.162;14.510;2023-09-08T00:27:07;6.28;;;3.13;;
39776;SDS011;25453;48.162;14.510;2023-09-08T00:29:36;5.78;;;3.30;;
39776;SDS011;25453;48.162;14.510;2023-09-08T00:32:03;4.88;;;3.05;;
39776;SDS011;25453;48.162;14.510;2023-09-08T00:34:30;5.00;;;3.00;;
39776;SDS011;25453;48.162;14.510;2023-09-08T00:36:58;5.95;;;3.25;;
39776;SDS011;25453;48.162;14.510;2023-09-08T00:39:27;6.32;;;3.22;;
39776;SDS011;25453;48.162;14.510;2023-09-08T00:41:55;7.78;;;3.22;;
39776;SDS011;25453;48.162;14.510;2023-09-08T00:44:23;6.07;;;3.08;;
39776;SDS011;25453;48.162;14.510;2023-09-08T00:46:50;6.15;;;2.67;;
39776;SDS011;25453;48.162;14.510;2023-09-08T00:49:17;7.00;;;3.08;;
39776;SDS011;25453;48.162;14.510;2023-09-08T00:51:44;6.18;;;2.75;;
39776;SDS011;25453;48.162;14.510;2023-09-08T00:54:12;5.88;;;3.17;;
39776;SDS011;25453;48.162;14.510;2023-09-08T00:56:40;5.82;;;2.95;;
39776;SDS011;25453;48.162;14.510;2023-09-08T00:59:08;5.72;;;3.13;;
39776;SDS011;25453;48.162;14.510;2023-09-08T01:01:36;5.50;;;2.83;;
39776;SDS011;25453;48.162;14.510;2023-09-08T01:04:03;5.13;;;3.00;;
39776;SDS011;25453;48.162;14.510;2023-09-08T01:06:30;5.13;;;2.75;;
39776;SDS011;25453;48.162;14.510;2023-09-08T01:08:59;6.30;;;3.45;;
39776;SDS011;25453;48.162;14.510;2023-09-08T01:11:27;6.30;;;2.88;;
39776;SDS011;25453;48.162;14.510;2023-09-08T01:13:54;5.30;;;2.55;;
39776;SDS011;25453;48.162;14.510;2023-09-08T01:16:21;4.82;;;2.47;;
39776;SDS011;25453;48.162;14.510;2023-09-08T01:18:49;4.65;;;2.58;;
39776;SDS011;25453;48.162;14.510;2023-09-08T01:27:09;4.65;;;2.40;;
39776;SDS011;25453;48.162;14.510;2023-09-08T01:29:40;5.07;;;2.63;;
39776;SDS011;25453;48.162;14.510;2023-09-08T01:32:09;4.05;;;2.15;;
39776;SDS011;25453;48.162;14.510;2023-09-08T01:34:37;4.75;;;2.70;;
39776;SDS011;25453;48.162;14.510;2023-09-08T01:37:07;4.50;;;2.20;;
39776;SDS011;25453;48.162;14.510;2023-09-08T01:39:35;3.45;;;2.00;;
39776;SDS011;25453;48.162;14.510;2023-09-08T01:42:02;5.80;;;2.38;;
39776;SDS011;25453;48.162;14.510;2023-09-08T01:44:29;3.45;;;2.10;;
39776;SDS011;25453;48.162;14.510;2023-09-08T01:46:57;3.13;;;1.90;;
39776;SDS011;25453;48.162;14.510;2023-09-08T01:49:24;5.32;;;2.45;;
39776;SDS011;25453;48.162;14.510;2023-09-08T01:51:52;4.90;;;2.30;;
39776;SDS011;25453;48.162;14.510;2023-09-08T01:54:20;3.72;;;2.15;;
39776;SDS011;25453;48.162;14.510;2023-09-08T01:56:47;6.97;;;2.50;;
39776;SDS011;25453;48.162;14.510;2023-09-08T01:59:14;4.85;;;2.63;;
39776;SDS011;25453;48.162;14.510;2023-09-08T02:01:41;3.10;;;2.15;;
39776;SDS011;25453;48.162;14.510;2023-09-08T02:04:08;4.20;;;2.15;;
39776;SDS011;25453;48.162;14.510;2023-09-08T02:06:35;5.20;;;2.63;;
39776;SDS011;25453;48.162;14.510;2023-09-08T02:09:02;3.95;;;2.20;;
39776;SDS011;25453;48.162;14.510;2023-09-08T02:11:30;4.45;;;2.58;;
39776;SDS011;25453;48.162;14.510;2023-09-08T02:13:57;5.95;;;2.60;;
39776;SDS011;25453;48.162;14.510;2023-09-08T02:16:24;2.90;;;1.90;;
39776;SDS011;25453;48.162;14.510;2023-09-08T02:18:51;4.65;;;2.40;;
39776;SDS011;25453;48.162;14.510;2023-09-08T02:21:18;3.50;;;2.03;;
39776;SDS011;25453;48.162;14.510;2023-09-08T02:23:46;3.22;;;1.75;;
39776;SDS011;25453;48.162;14.510;2023-09-08T02:26:14;4.63;;;2.25;;
39776;SDS011;25453;48.162;14.510;2023-09-08T02:28:42;3.72;;;1.95;;
39776;SDS011;25453;48.162;14.510;2023-09-08T02:31:09;5.07;;;2.53;;
39776;SDS011;25453;48.162;14.510;2023-09-08T02:33:36;4.22;;;2.63;;
39776;SDS011;25453;48.162;14.510;2023-09-08T02:36:03;4.75;;;2.72;;
39776;SDS011;25453;48.162;14.510;2023-09-08T02:38:32;4.38;;;2.30;;
39776;SDS011;25453;48.162;14.510;2023-09-08T02:41:00;4.95;;;2.70;;
39776;SDS011;25453;48.162;14.510;2023-09-08T02:43:27;3.72;;;2.10;;
39776;SDS011;25453;48.162;14.510;2023-09-08T02:45:54;4.57;;;2.55;;
39776;SDS011;25453;48.162;14.510;2023-09-08T02:48:22;3.88;;;2.20;;
39776;SDS011;25453;48.162;14.510;2023-09-08T02:50:49;4.90;;;2.63;;
39776;SDS011;25453;48.162;14.510;2023-09-08T02:53:17;4.10;;;1.92;;
39776;SDS011;25453;48.162;14.510;2023-09-08T02:55:45;3.90;;;1.92;;
39776;SDS011;25453;48.162;14.510;2023-09-08T02:58:13;3.65;;;2.05;;
39776;SDS011;25453;48.162;14.510;2023-09-08T03:00:40;4.32;;;2.05;;
39776;SDS011;25453;48.162;14.510;2023-09-08T03:03:07;3.28;;;1.70;;
39776;SDS011;25453;48.162;14.510;2023-09-08T03:05:35;4.30;;;2.17;;
39776;SDS011;25453;48.162;14.510;2023-09-08T03:08:03;3.75;;;2.22;;
39776;SDS011;25453;48.162;14.510;2023-09-08T03:10:32;3.88;;;1.75;;
39776;SDS011;25453;48.162;14.510;2023-09-08T03:13:03;3.92;;;2.00;;
39776;SDS011;25453;48.162;14.510;2023-09-08T03:15:31;4.15;;;1.95;;
39776;SDS011;25453;48.162;14.510;2023-09-08T03:17:58;4.13;;;2.13;;
39776;SDS011;25453;48.162;14.510;2023-09-08T03:20:25;3.53;;;2.10;;
39776;SDS011;25453;48.162;14.510;2023-09-08T03:22:53;4.47;;;2.10;;
39776;SDS011;25453;48.162;14.510;2023-09-08T03:25:21;3.85;;;1.88;;
39776;SDS011;25453;48.162;14.510;2023-09-08T03:27:48;3.63;;;1.80;;
39776;SDS011;25453;48.162;14.510;2023-09-08T03:30:15;3.45;;;2.00;;
39776;SDS011;25453;48.162;14.510;2023-09-08T03:32:42;2.17;;;1.60;;
39776;SDS011;25453;48.162;14.510;2023-09-08T03:35:09;4.30;;;2.13;;
39776;SDS011;25453;48.162;14.510;2023-09-08T03:37:37;3.70;;;1.77;;
39776;SDS011;25453;48.162;14.510;2023-09-08T03:40:04;3.88;;;1.90;;
39776;SDS011;25453;48.162;14.510;2023-09-08T03:42:33;5.10;;;2.40;;
39776;SDS011;25453;48.162;14.510;2023-09-08T03:45:01;4.65;;;2.10;;
39776;SDS011;25453;48.162;14.510;2023-09-08T03:47:28;4.95;;;1.90;;
39776;SDS011;25453;48.162;14.510;2023-09-08T03:49:56;3.60;;;2.08;;
39776;SDS011;25453;48.162;14.510;2023-09-08T03:52:23;4.00;;;1.92;;
39776;SDS011;25453;48.162;14.510;2023-09-08T03:54:50;3.30;;;1.95;;
39776;SDS011;25453;48.162;14.510;2023-09-08T03:57:17;4.60;;;2.00;;
39776;SDS011;25453;48.162;14.510;2023-09-08T03:59:44;3.08;;;1.70;;
39776;SDS011;25453;48.162;14.510;2023-09-08T04:02:12;3.97;;;1.80;;
39776;SDS011;25453;48.162;14.510;2023-09-08T04:04:39;5.20;;;2.28;;
39776;SDS011;25453;48.162;14.510;2023-09-08T04:07:06;4.32;;;1.90;;
39776;SDS011;25453;48.162;14.510;2023-09-08T04:09:33;3.38;;;1.88;;
39776;SDS011;25453;48.162;14.510;2023-09-08T04:12:01;4.15;;;2.20;;
39776;SDS011;25453;48.162;14.510;2023-09-08T04:14:28;5.75;;;2.53;;
39776;SDS011;25453;48.162;14.510;2023-09-08T04:16:56;3.90;;;2.03;;
39776;SDS011;25453;48.162;14.510;2023-09-08T04:19:24;4.10;;;2.08;;
39776;SDS011;25453;48.162;14.510;2023-09-08T04:21:51;3.13;;;1.70;;
39776;SDS011;25453;48.162;14.510;2023-09-08T04:24:18;3.53;;;2.00;;
39776;SDS011;25453;48.162;14.510;2023-09-08T04:26:46;4.20;;;1.83;;
39776;SDS011;25453;48.162;14.510;2023-09-08T04:29:13;5.13;;;2.70;;
39776;SDS011;25453;48.162;14.510;2023-09-08T04:31:41;2.83;;;1.65;;
39776;SDS011;25453;48.162;14.510;2023-09-08T04:34:08;4.10;;;2.20;;
39776;SDS011;25453;48.162;14.510;2023-09-08T04:36:35;3.03;;;1.67;;
39776;SDS011;25453;48.162;14.510;2023-09-08T04:39:03;4.18;;;2.30;;
39776;SDS011;25453;48.162;14.510;2023-09-08T04:41:30;3.55;;;2.03;;
39776;SDS011;25453;48.162;14.510;2023-09-08T04:43:57;4.70;;;2.22;;
39776;SDS011;25453;48.162;14.510;2023-09-08T04:46:24;3.58;;;1.90;;
39776;SDS011;25453;48.162;14.510;2023-09-08T04:48:52;4.32;;;2.13;;
39776;SDS011;25453;48.162;14.510;2023-09-08T04:51:19;3.70;;;2.30;;
39776;SDS011;25453;48.162;14.510;2023-09-08T04:53:46;3.85;;;2.20;;
39776;SDS011;25453;48.162;14.510;2023-09-08T04:56:13;5.68;;;2.47;;
39776;SDS011;25453;48.162;14.510;2023-09-08T04:58:41;3.42;;;1.83;;
39776;SDS011;25453;48.162;14.510;2023-09-08T05:01:09;6.88;;;2.70;;
39776;SDS011;25453;48.162;14.510;2023-09-08T05:03:36;5.13;;;2.28;;
39776;SDS011;25453;48.162;14.510;2023-09-08T05:06:04;6.07;;;2.63;;
39776;SDS011;25453;48.162;14.510;2023-09-08T05:08:31;4.18;;;2.10;;
39776;SDS011;25453;48.162;14.510;2023-09-08T05:10:59;5.28;;;2.47;;
39776;SDS011;25453;48.162;14.510;2023-09-08T05:13:26;3.72;;;2.00;;
39776;SDS011;25453;48.162;14.510;2023-09-08T05:15:57;4.78;;;2.40;;
39776;SDS011;25453;48.162;14.510;2023-09-08T05:18:26;4.57;;;2.47;;
39776;SDS011;25453;48.162;14.510;2023-09-08T05:20:54;4.30;;;2.00;;
39776;SDS011;25453;48.162;14.510;2023-09-08T05:23:21;3.20;;;1.95;;
39776;SDS011;25453;48.162;14.510;2023-09-08T05:25:48;4.88;;;2.33;;
39776;SDS011;25453;48.162;14.510;2023-09-08T05:28:15;3.83;;;2.22;;
39776;SDS011;25453;48.162;14.510;2023-09-08T05:30:42;4.28;;;2.60;;
39776;SDS011;25453;48.162;14.510;2023-09-08T05:33:09;3.85;;;2.15;;
39776;SDS011;25453;48.162;14.510;2023-09-08T05:35:37;5.25;;;2.38;;
39776;SDS011;25453;48.162;14.510;2023-09-08T05:38:04;5.03;;;2.08;;
39776;SDS011;25453;48.162;14.510;2023-09-08T05:40:31;4.20;;;1.90;;
39776;SDS011;25453;48.162;14.510;2023-09-08T05:42:58;3.60;;;2.15;;
39776;SDS011;25453;48.162;14.510;2023-09-08T05:45:25;4.22;;;1.85;;
39776;SDS011;25453;48.162;14.510;2023-09-08T05:47:53;3.70;;;2.10;;
39776;SDS011;25453;48.162;14.510;2023-09-08T05:50:20;4.07;;;1.90;;
39776;SDS011;25453;48.162;14.510;2023-09-08T05:52:50;2.72;;;1.70;;
39776;SDS011;25453;48.162;14.510;2023-09-08T05:55:18;3.92;;;1.90;;
39776;SDS011;25453;48.162;14.510;2023-09-08T05:57:45;3.17;;;1.85;;
39776;SDS011;25453;48.162;14.510;2023-09-08T06:00:12;3.03;;;1.73;;
39776;SDS011;25453;48.162;14.510;2023-09-08T06:02:40;3.75;;;1.77;;
39776;SDS011;25453;48.162;14.510;2023-09-08T06:05:07;4.03;;;1.98;;
39776;SDS011;25453;48.162;14.510;2023-09-08T06:07:34;3.42;;;1.75;;
39776;SDS011;25453;48.162;14.510;2023-09-08T06:10:04;4.72;;;2.00;;
39776;SDS011;25453;48.162;14.510;2023-09-08T06:12:31;4.25;;;1.95;;
39776;SDS011;25453;48.162;14.510;2023-09-08T06:14:59;4.63;;;2.20;;
39776;SDS011;25453;48.162;14.510;2023-09-08T06:17:26;3.33;;;1.70;;
39776;SDS011;25453;48.162;14.510;2023-09-08T06:19:53;4.35;;;2.03;;
39776;SDS011;25453;48.162;14.510;2023-09-08T06:22:20;6.35;;;2.10;;
39776;SDS011;25453;48.162;14.510;2023-09-08T06:24:48;4.15;;;2.08;;
39776;SDS011;25453;48.162;14.510;2023-09-08T06:27:15;6.68;;;2.25;;
39776;SDS011;25453;48.162;14.510;2023-09-08T06:29:42;4.50;;;1.98;;
39776;SDS011;25453;48.162;14.510;2023-09-08T06:32:10;4.10;;;2.00;;
39776;SDS011;25453;48.162;14.510;2023-09-08T06:34:37;5.85;;;2.15;;
39776;SDS011;25453;48.162;14.510;2023-09-08T06:37:07;3.83;;;1.98;;
39776;SDS011;25453;48.162;14.510;2023-09-08T06:39:34;3.15;;;1.50;;
39776;SDS011;25453;48.162;14.510;2023-09-08T06:42:03;4.80;;;1.70;;
39776;SDS011;25453;48.162;14.510;2023-09-08T06:44:30;2.22;;;1.25;;
39776;SDS011;25453;48.162;14.510;2023-09-08T06:46:57;3.08;;;1.65;;
39776;SDS011;25453;48.162;14.510;2023-09-08T06:49:25;4.50;;;1.80;;
39776;SDS011;25453;48.162;14.510;2023-09-08T06:51:52;2.95;;;1.58;;
39776;SDS011;25453;48.162;14.510;2023-09-08T06:54:19;2.88;;;1.30;;
39776;SDS011;25453;48.162;14.510;2023-09-08T06:56:46;4.32;;;1.50;;
39776;SDS011;25453;48.162;14.510;2023-09-08T06:59:13;3.88;;;1.80;;
39776;SDS011;25453;48.162;14.510;2023-09-08T07:01:40;3.05;;;1.48;;
39776;SDS011;25453;48.162;14.510;2023-09-08T07:04:08;2.85;;;1.50;;
39776;SDS011;25453;48.162;14.510;2023-09-08T07:06:35;2.92;;;1.65;;
39776;SDS011;25453;48.162;14.510;2023-09-08T07:09:05;3.85;;;1.50;;
39776;SDS011;25453;48.162;14.510;2023-09-08T07:11:32;3.13;;;1.52;;
39776;SDS011;25453;48.162;14.510;2023-09-08T07:13:59;3.55;;;1.58;;
39776;SDS011;25453;48.162;14.510;2023-09-08T07:16:26;3.55;;;2.00;;
39776;SDS011;25453;48.162;14.510;2023-09-08T07:18:53;3.15;;;1.60;;
39776;SDS011;25453;48.162;14.510;2023-09-08T07:21:21;3.53;;;1.70;;
39776;SDS011;25453;48.162;14.510;2023-09-08T07:23:48;3.78;;;2.20;;
39776;SDS011;25453;48.162;14.510;2023-09-08T07:26:15;3.33;;;1.35;;
39776;SDS011;25453;48.162;14.510;2023-09-08T07:28:43;4.20;;;1.63;;
39776;SDS011;25453;48.162;14.510;2023-09-08T07:31:10;2.97;;;1.60;;
39776;SDS011;25453;48.162;14.510;2023-09-08T07:33:38;2.95;;;1.90;;
39776;SDS011;25453;48.162;14.510;2023-09-08T07:36:05;3.38;;;1.70;;
39776;SDS011;25453;48.162;14.510;2023-09-08T07:38:34;2.35;;;1.70;;
39776;SDS011;25453;48.162;14.510;2023-09-08T07:41:02;2.67;;;1.73;;
39776;SDS011;25453;48.162;14.510;2023-09-08T07:43:29;3.42;;;1.83;;
39776;SDS011;25453;48.162;14.510;2023-09-08T07:45:57;3.28;;;1.55;;
39776;SDS011;25453;48.162;14.510;2023-09-08T07:48:24;3.28;;;1.65;;
39776;SDS011;25453;48.162;14.510;2023-09-08T07:50:52;4.68;;;2.00;;
39776;SDS011;25453;48.162;14.510;2023-09-08T07:53:19;2.38;;;1.30;;
39776;SDS011;25453;48.162;14.510;2023-09-08T07:55:46;5.72;;;1.60;;
39776;SDS011;25453;48.162;14.510;2023-09-08T07:58:13;2.67;;;1.77;;
39776;SDS011;25453;48.162;14.510;2023-09-08T08:00:40;3.10;;;1.63;;
39776;SDS011;25453;48.162;14.510;2023-09-08T08:03:07;3.58;;;1.70;;
39776;SDS011;25453;48.162;14.510;2023-09-08T08:05:35;2.53;;;1.52;;
39776;SDS011;25453;48.162;14.510;2023-09-08T08:08:03;4.00;;;1.70;;
39776;SDS011;25453;48.162;14.510;2023-09-08T08:10:30;3.58;;;1.85;;
39776;SDS011;25453;48.162;14.510;2023-09-08T08:12:58;3.45;;;1.90;;
39776;SDS011;25453;48.162;14.510;2023-09-08T08:15:34;5.78;;;2.83;;
39776;SDS011;25453;48.162;14.510;2023-09-08T08:18:06;6.13;;;3.03;;
39776;SDS011;25453;48.162;14.510;2023-09-08T08:20:34;4.65;;;3.10;;
39776;SDS011;25453;48.162;14.510;2023-09-08T08:23:02;6.28;;;2.90;;
39776;SDS011;25453;48.162;14.510;2023-09-08T08:25:30;7.40;;;3.58;;
39776;SDS011;25453;48.162;14.510;2023-09-08T08:27:59;5.32;;;2.92;;
39776;SDS011;25453;48.162;14.510;2023-09-08T08:30:27;7.97;;;3.72;;
39776;SDS011;25453;48.162;14.510;2023-09-08T08:32:55;7.15;;;3.55;;
39776;SDS011;25453;48.162;14.510;2023-09-08T08:35:23;6.78;;;3.38;;
39776;SDS011;25453;48.162;14.510;2023-09-08T08:37:50;7.05;;;3.70;;
39776;SDS011;25453;48.162;14.510;2023-09-08T08:40:18;6.47;;;3.35;;
39776;SDS011;25453;48.162;14.510;2023-09-08T08:42:45;6.20;;;3.22;;
39776;SDS011;25453;48.162;14.510;2023-09-08T08:45:12;4.93;;;3.08;;
39776;SDS011;25453;48.162;14.510;2023-09-08T08:47:41;5.78;;;3.40;;
39776;SDS011;25453;48.162;14.510;2023-09-08T08:50:10;6.55;;;3.20;;
39776;SDS011;25453;48.162;14.510;2023-09-08T08:52:40;6.05;;;3.15;;
39776;SDS011;25453;48.162;14.510;2023-09-08T08:55:07;6.35;;;3.28;;
39776;SDS011;25453;48.162;14.510;2023-09-08T08:57:38;4.78;;;2.50;;
39776;SDS011;25453;48.162;14.510;2023-09-08T09:00:06;7.55;;;2.83;;
39776;SDS011;25453;48.162;14.510;2023-09-08T09:02:42;7.40;;;3.22;;
39776;SDS011;25453;48.162;14.510;2023-09-08T09:05:16;4.70;;;2.95;;
39776;SDS011;25453;48.162;14.510;2023-09-08T09:07:45;6.00;;;3.42;;
39776;SDS011;25453;48.162;14.510;2023-09-08T09:10:12;6.35;;;3.03;;
39776;SDS011;25453;48.162;14.510;2023-09-08T09:12:40;4.53;;;2.70;;
39776;SDS011;25453;48.162;14.510;2023-09-08T09:15:08;5.28;;;3.30;;
39776;SDS011;25453;48.162;14.510;2023-09-08T09:17:36;5.00;;;2.50;;
39776;SDS011;25453;48.162;14.510;2023-09-08T09:20:12;4.68;;;2.78;;
39776;SDS011;25453;48.162;14.510;2023-09-08T09:22:44;4.63;;;2.67;;
39776;SDS011;25453;48.162;14.510;2023-09-08T09:25:24;5.60;;;3.20;;
39776;SDS011;25453;48.162;14.510;2023-09-08T09:27:55;6.32;;;3.28;;
39776;SDS011;25453;48.162;14.510;2023-09-08T09:30:24;5.60;;;2.78;;
39776;SDS011;25453;48.162;14.510;2023-09-08T09:32:58;5.70;;;2.80;;
39776;SDS011;25453;48.162;14.510;2023-09-08T09:35:43;7.22;;;3.20;;
39776;SDS011;25453;48.162;14.510;2023-09-08T09:38:11;5.47;;;3.50;;
39776;SDS011;25453;48.162;14.510;2023-09-08T09:40:39;6.05;;;3.67;;
39776;SDS011;25453;48.162;14.510;2023-09-08T09:43:07;6.20;;;3.17;;
39776;SDS011;25453;48.162;14.510;2023-09-08T09:45:35;7.13;;;3.30;;
39776;SDS011;25453;48.162;14.510;2023-09-08T09:48:03;4.90;;;3.35;;
39776;SDS011;25453;48.162;14.510;2023-09-08T09:50:42;5.20;;;2.97;;
39776;SDS011;25453;48.162;14.510;2023-09-08T09:53:11;6.70;;;2.85;;
39776;SDS011;25453;48.162;14.510;2023-09-08T09:55:41;4.72;;;2.72;;
39776;SDS011;25453;48.162;14.510;2023-09-08T09:58:09;4.15;;;2.55;;
39776;SDS011;25453;48.162;14.510;2023-09-08T10:00:38;4.70;;;2.75;;
39776;SDS011;25453;48.162;14.510;2023-09-08T10:03:15;4.55;;;2.75;;
39776;SDS011;25453;48.162;14.510;2023-09-08T10:05:43;7.63;;;3.40;;
39776;SDS011;25453;48.162;14.510;2023-09-08T10:08:10;5.63;;;3.35;;
39776;SDS011;25453;48.162;14.510;2023-09-08T10:10:38;4.75;;;2.97;;
39776;SDS011;25453;48.162;14.510;2023-09-08T10:13:08;5.25;;;3.25;;
39776;SDS011;25453;48.162;14.510;2023-09-08T10:15:38;6.20;;;3.13;;
39776;SDS011;25453;48.162;14.510;2023-09-08T10:18:08;6.43;;;3.17;;
39776;SDS011;25453;48.162;14.510;2023-09-08T10:20:38;5.65;;;2.75;;
39776;SDS011;25453;48.162;14.510;2023-09-08T10:23:08;5.60;;;3.33;;
39776;SDS011;25453;48.162;14.510;2023-09-08T10:25:53;5.75;;;2.90;;
39776;SDS011;25453;48.162;14.510;2023-09-08T10:28:29;5.68;;;3.22;;
39776;SDS011;25453;48.162;14.510;2023-09-08T10:30:59;5.60;;;3.40;;
39776;SDS011;25453;48.162;14.510;2023-09-08T10:33:27;6.70;;;4.00;;
39776;SDS011;25453;48.162;14.510;2023-09-08T10:35:56;5.00;;;2.92;;
39776;SDS011;25453;48.162;14.510;2023-09-08T10:38:30;5.50;;;3.50;;
39776;SDS011;25453;48.162;14.510;2023-09-08T10:41:45;5.10;;;3.13;;
39776;SDS011;25453;48.162;14.510;2023-09-08T10:43:56;4.95;;;3.08;;
39776;SDS011;25453;48.162;14.510;2023-09-08T10:46:27;6.00;;;3.13;;
39776;SDS011;25453;48.162;14.510;2023-09-08T10:48:55;5.00;;;2.80;;
39776;SDS011;25453;48.162;14.510;2023-09-08T10:51:30;4.95;;;2.78;;
39776;SDS011;25453;48.162;14.510;2023-09-08T10:53:57;5.93;;;3.20;;
39776;SDS011;25453;48.162;14.510;2023-09-08T10:57:08;5.13;;;2.65;;
39776;SDS011;25453;48.162;14.510;2023-09-08T10:59:22;5.18;;;3.53;;
39776;SDS011;25453;48.162;14.510;2023-09-08T11:01:56;6.68;;;3.30;;
39776;SDS011;25453;48.162;14.510;2023-09-08T11:04:23;5.00;;;2.80;;
39776;SDS011;25453;48.162;14.510;2023-09-08T11:06:51;4.70;;;2.58;;
39776;SDS011;25453;48.162;14.510;2023-09-08T11:09:19;4.20;;;2.38;;
39776;SDS011;25453;48.162;14.510;2023-09-08T11:11:47;5.68;;;3.10;;
39776;SDS011;25453;48.162;14.510;2023-09-08T11:14:14;4.70;;;3.05;;
39776;SDS011;25453;48.162;14.510;2023-09-08T11:16:42;7.82;;;3.05;;
39776;SDS011;25453;48.162;14.510;2023-09-08T11:19:10;5.10;;;2.70;;
39776;SDS011;25453;48.162;14.510;2023-09-08T11:21:39;3.80;;;2.13;;
39776;SDS011;25453;48.162;14.510;2023-09-08T11:24:07;3.88;;;2.30;;
39776;SDS011;25453;48.162;14.510;2023-09-08T11:26:36;4.30;;;2.60;;
39776;SDS011;25453;48.162;14.510;2023-09-08T11:29:05;4.40;;;2.50;;
39776;SDS011;25453;48.162;14.510;2023-09-08T11:31:32;4.53;;;2.30;;
39776;SDS011;25453;48.162;14.510;2023-09-08T11:34:01;2.78;;;1.80;;
39776;SDS011;25453;48.162;14.510;2023-09-08T11:36:31;4.78;;;2.42;;
39776;SDS011;25453;48.162;14.510;2023-09-08T11:38:58;3.53;;;2.03;;
39776;SDS011;25453;48.162;14.510;2023-09-08T11:41:26;4.13;;;2.35;;
39776;SDS011;25453;48.162;14.510;2023-09-08T11:43:55;4.90;;;2.97;;
39776;SDS011;25453;48.162;14.510;2023-09-08T11:46:22;5.00;;;2.55;;
39776;SDS011;25453;48.162;14.510;2023-09-08T11:48:49;4.32;;;3.10;;
39776;SDS011;25453;48.162;14.510;2023-09-08T11:51:17;4.90;;;2.50;;
39776;SDS011;25453;48.162;14.510;2023-09-08T11:53:49;5.70;;;2.85;;
39776;SDS011;25453;48.162;14.510;2023-09-08T11:56:17;3.97;;;2.40;;
39776;SDS011;25453;48.162;14.510;2023-09-08T11:58:44;4.65;;;2.75;;
39776;SDS011;25453;48.162;14.510;2023-09-08T12:01:12;6.82;;;3.13;;
39776;SDS011;25453;48.162;14.510;2023-09-08T12:03:52;4.93;;;2.85;;
39776;SDS011;25453;48.162;14.510;2023-09-08T12:06:24;4.50;;;2.75;;
39776;SDS011;25453;48.162;14.510;2023-09-08T12:08:55;4.20;;;2.67;;
39776;SDS011;25453;48.162;14.510;2023-09-08T12:11:32;4.07;;;2.47;;
39776;SDS011;25453;48.162;14.510;2023-09-08T12:14:01;3.92;;;2.40;;
39776;SDS011;25453;48.162;14.510;2023-09-08T12:16:33;4.68;;;2.53;;
39776;SDS011;25453;48.162;14.510;2023-09-08T12:19:00;6.10;;;2.60;;
39776;SDS011;25453;48.162;14.510;2023-09-08T12:21:28;5.28;;;2.30;;
39776;SDS011;25453;48.162;14.510;2023-09-08T12:23:56;3.75;;;2.22;;
39776;SDS011;25453;48.162;14.510;2023-09-08T12:26:26;4.10;;;2.83;;
39776;SDS011;25453;48.162;14.510;2023-09-08T12:28:54;5.78;;;3.22;;
39776;SDS011;25453;48.162;14.510;2023-09-08T12:31:22;4.95;;;2.80;;
39776;SDS011;25453;48.162;14.510;2023-09-08T12:33:49;4.85;;;3.05;;
39776;SDS011;25453;48.162;14.510;2023-09-08T12:36:18;3.83;;;2.10;;
39776;SDS011;25453;48.162;14.510;2023-09-08T12:38:48;4.35;;;2.58;;
39776;SDS011;25453;48.162;14.510;2023-09-08T12:41:19;4.20;;;2.25;;
39776;SDS011;25453;48.162;14.510;2023-09-08T12:43:47;3.95;;;2.33;;
39776;SDS011;25453;48.162;14.510;2023-09-08T12:46:16;3.58;;;2.03;;
39776;SDS011;25453;48.162;14.510;2023-09-08T12:48:45;3.38;;;1.92;;
39776;SDS011;25453;48.162;14.510;2023-09-08T12:51:12;3.40;;;2.00;;
39776;SDS011;25453;48.162;14.510;2023-09-08T12:53:39;2.90;;;1.92;;
39776;SDS011;25453;48.162;14.510;2023-09-08T12:56:07;3.40;;;1.90;;
39776;SDS011;25453;48.162;14.510;2023-09-08T12:58:34;2.70;;;1.50;;
39776;SDS011;25453;48.162;14.510;2023-09-08T13:01:01;2.45;;;1.30;;
39776;SDS011;25453;48.162;14.510;2023-09-08T13:03:31;5.38;;;1.80;;
39776;SDS011;25453;48.162;14.510;2023-09-08T13:05:59;2.78;;;1.58;;
39776;SDS011;25453;48.162;14.510;2023-09-08T13:08:26;1.65;;;1.30;;
39776;SDS011;25453;48.162;14.510;2023-09-08T13:10:53;3.10;;;1.73;;
39776;SDS011;25453;48.162;14.510;2023-09-08T13:13:20;3.85;;;2.10;;
39776;SDS011;25453;48.162;14.510;2023-09-08T13:15:47;2.85;;;1.70;;
39776;SDS011;25453;48.162;14.510;2023-09-08T13:18:16;2.58;;;1.33;;
39776;SDS011;25453;48.162;14.510;2023-09-08T13:20:43;2.45;;;1.58;;
39776;SDS011;25453;48.162;14.510;2023-09-08T13:23:10;3.03;;;1.75;;
39776;SDS011;25453;48.162;14.510;2023-09-08T13:25:37;3.00;;;1.92;;
39776;SDS011;25453;48.162;14.510;2023-09-08T13:28:05;3.40;;;1.63;;
39776;SDS011;25453;48.162;14.510;2023-09-08T13:30:32;3.03;;;1.65;;
39776;SDS011;25453;48.162;14.510;2023-09-08T13:32:59;3.33;;;1.45;;
39776;SDS011;25453;48.162;14.510;2023-09-08T13:35:27;3.20;;;1.50;;
39776;SDS011;25453;48.162;14.510;2023-09-08T13:37:54;3.30;;;1.80;;
39776;SDS011;25453;48.162;14.510;2023-09-08T13:40:21;3.10;;;1.90;;
39776;SDS011;25453;48.162;14.510;2023-09-08T13:42:49;3.05;;;1.65;;
39776;SDS011;25453;48.162;14.510;2023-09-08T13:45:16;3.03;;;1.73;;
39776;SDS011;25453;48.162;14.510;2023-09-08T13:47:43;3.33;;;1.83;;
39776;SDS011;25453;48.162;14.510;2023-09-08T13:50:11;2.55;;;1.40;;
39776;SDS011;25453;48.162;14.510;2023-09-08T13:52:39;2.97;;;1.58;;
39776;SDS011;25453;48.162;14.510;2023-09-08T13:55:09;3.90;;;1.70;;
39776;SDS011;25453;48.162;14.510;2023-09-08T13:57:57;2.00;;;1.38;;
39776;SDS011;25453;48.162;14.510;2023-09-08T14:00:27;2.97;;;1.65;;
39776;SDS011;25453;48.162;14.510;2023-09-08T14:02:57;4.32;;;1.95;;
39776;SDS011;25453;48.162;14.510;2023-09-08T14:05:25;2.38;;;1.50;;
39776;SDS011;25453;48.162;14.510;2023-09-08T14:08:01;3.20;;;1.73;;
39776;SDS011;25453;48.162;14.510;2023-09-08T14:10:42;4.03;;;2.20;;
39776;SDS011;25453;48.162;14.510;2023-09-08T14:13:13;3.47;;;2.13;;
39776;SDS011;25453;48.162;14.510;2023-09-08T14:15:40;2.67;;;1.67;;
39776;SDS011;25453;48.162;14.510;2023-09-08T14:18:07;2.95;;;1.70;;
39776;SDS011;25453;48.162;14.510;2023-09-08T14:20:35;2.67;;;1.63;;
39776;SDS011;25453;48.162;14.510;2023-09-08T14:23:02;2.75;;;1.77;;
39776;SDS011;25453;48.162;14.510;2023-09-08T14:25:29;3.13;;;1.90;;
39776;SDS011;25453;48.162;14.510;2023-09-08T14:27:56;3.08;;;1.65;;
39776;SDS011;25453;48.162;14.510;2023-09-08T14:30:27;3.03;;;1.75;;
39776;SDS011;25453;48.162;14.510;2023-09-08T14:32:54;2.30;;;1.52;;
39776;SDS011;25453;48.162;14.510;2023-09-08T14:35:21;3.03;;;1.63;;
39776;SDS011;25453;48.162;14.510;2023-09-08T14:37:49;3.00;;;1.85;;
39776;SDS011;25453;48.162;14.510;2023-09-08T14:40:16;2.78;;;1.83;;
39776;SDS011;25453;48.162;14.510;2023-09-08T14:42:43;2.63;;;1.58;;
39776;SDS011;25453;48.162;14.510;2023-09-08T14:45:10;3.13;;;1.80;;